sensor_id;sensor_type;location;lat;lon;timestamp;P1;durP1;ratioP1;P2;durP2;ratioP2
54261;SDS011;40174;52.364;6.452;2023-02-18T00:01:59;17.63;;;5.60;;
54261;SDS011;40174;52.364;6.452;2023-02-18T00:04:25;16.50;;;5.97;;
54261;SDS011;40174;52.364;6.452;2023-02-18T00:06:52;19.20;;;6.85;;
54261;SDS011;40174;52.364;6.452;2023-02-18T00:09:20;21.20;;;6.80;;
54261;SDS011;40174;52.364;6.452;2023-02-18T00:11:46;15.88;;;6.45;;
54261;SDS011;40174;52.364;6.452;2023-02-18T00:14:13;18.17;;;7.50;;
54261;SDS011;40174;52.364;6.452;2023-02-18T00:16:41;22.40;;;7.28;;
54261;SDS011;40174;52.364;6.452;2023-02-18T00:19:10;22.40;;;7.55;;
54261;SDS011;40174;52.364;6.452;2023-02-18T00:21:38;24.48;;;9.25;;
54261;SDS011;40174;52.364;6.452;2023-02-18T00:24:05;24.15;;;8.82;;
54261;SDS011;40174;52.364;6.452;2023-02-18T00:26:34;25.48;;;8.98;;
54261;SDS011;40174;52.364;6.452;2023-02-18T00:29:01;23.15;;;9.05;;
54261;SDS011;40174;52.364;6.452;2023-02-18T00:31:29;21.92;;;10.20;;
54261;SDS011;40174;52.364;6.452;2023-02-18T00:33:59;26.38;;;10.43;;
54261;SDS011;40174;52.364;6.452;2023-02-18T00:36:27;20.48;;;10.32;;
54261;SDS011;40174;52.364;6.452;2023-02-18T00:38:55;31.92;;;10.60;;
54261;SDS011;40174;52.364;6.452;2023-02-18T00:41:23;38.05;;;10.80;;
54261;SDS011;40174;52.364;6.452;2023-02-18T00:43:53;31.50;;;11.88;;
54261;SDS011;40174;52.364;6.452;2023-02-18T00:46:20;32.72;;;12.15;;
54261;SDS011;40174;52.364;6.452;2023-02-18T00:48:48;35.40;;;12.60;;
54261;SDS011;40174;52.364;6.452;2023-02-18T00:51:14;27.42;;;11.52;;
54261;SDS011;40174;52.364;6.452;2023-02-18T00:53:41;26.52;;;12.15;;
54261;SDS011;40174;52.364;6.452;2023-02-18T00:56:08;35.20;;;13.18;;
54261;SDS011;40174;52.364;6.452;2023-02-18T00:58:35;31.70;;;12.52;;
54261;SDS011;40174;52.364;6.452;2023-02-18T01:01:05;24.92;;;12.93;;
54261;SDS011;40174;52.364;6.452;2023-02-18T01:03:33;31.83;;;13.38;;
54261;SDS011;40174;52.364;6.452;2023-02-18T01:05:59;30.40;;;13.18;;
54261;SDS011;40174;52.364;6.452;2023-02-18T01:08:26;45.38;;;14.38;;
54261;SDS011;40174;52.364;6.452;2023-02-18T01:10:53;30.35;;;12.68;;
54261;SDS011;40174;52.364;6.452;2023-02-18T01:13:21;40.47;;;14.63;;
54261;SDS011;40174;52.364;6.452;2023-02-18T01:15:48;39.85;;;14.40;;
54261;SDS011;40174;52.364;6.452;2023-02-18T01:18:16;35.88;;;13.88;;
54261;SDS011;40174;52.364;6.452;2023-02-18T01:20:43;36.65;;;14.30;;
54261;SDS011;40174;52.364;6.452;2023-02-18T01:23:11;34.42;;;14.80;;
54261;SDS011;40174;52.364;6.452;2023-02-18T01:25:38;36.13;;;14.48;;
54261;SDS011;40174;52.364;6.452;2023-02-18T01:28:07;39.33;;;14.45;;
54261;SDS011;40174;52.364;6.452;2023-02-18T01:30:35;36.78;;;13.40;;
54261;SDS011;40174;52.364;6.452;2023-02-18T01:33:03;36.80;;;14.35;;
54261;SDS011;40174;52.364;6.452;2023-02-18T01:35:31;36.92;;;13.88;;
54261;SDS011;40174;52.364;6.452;2023-02-18T01:37:58;38.78;;;14.05;;
54261;SDS011;40174;52.364;6.452;2023-02-18T01:40:25;44.47;;;15.38;;
54261;SDS011;40174;52.364;6.452;2023-02-18T01:42:54;38.40;;;13.73;;
54261;SDS011;40174;52.364;6.452;2023-02-18T01:48:17;39.58;;;13.98;;
54261;SDS011;40174;52.364;6.452;2023-02-18T01:50:50;36.13;;;13.63;;
54261;SDS011;40174;52.364;6.452;2023-02-18T01:53:21;35.75;;;14.48;;
54261;SDS011;40174;52.364;6.452;2023-02-18T01:55:51;43.80;;;14.90;;
54261;SDS011;40174;52.364;6.452;2023-02-18T01:58:18;45.97;;;14.32;;
54261;SDS011;40174;52.364;6.452;2023-02-18T02:00:45;37.72;;;15.75;;
54261;SDS011;40174;52.364;6.452;2023-02-18T02:03:13;46.67;;;15.23;;
54261;SDS011;40174;52.364;6.452;2023-02-18T02:05:42;42.00;;;15.93;;
54261;SDS011;40174;52.364;6.452;2023-02-18T02:08:14;37.60;;;14.73;;
54261;SDS011;40174;52.364;6.452;2023-02-18T02:10:44;40.05;;;16.40;;
54261;SDS011;40174;52.364;6.452;2023-02-18T02:13:23;45.17;;;14.45;;
54261;SDS011;40174;52.364;6.452;2023-02-18T02:15:55;43.33;;;16.13;;
54261;SDS011;40174;52.364;6.452;2023-02-18T02:18:38;45.45;;;14.93;;
54261;SDS011;40174;52.364;6.452;2023-02-18T02:27:12;38.80;;;13.30;;
54261;SDS011;40174;52.364;6.452;2023-02-18T02:36:13;45.65;;;14.30;;
54261;SDS011;40174;52.364;6.452;2023-02-18T02:38:44;46.53;;;14.52;;
54261;SDS011;40174;52.364;6.452;2023-02-18T02:41:22;44.55;;;13.07;;
54261;SDS011;40174;52.364;6.452;2023-02-18T02:44:00;40.05;;;13.45;;
54261;SDS011;40174;52.364;6.452;2023-02-18T02:46:37;52.65;;;14.70;;
54261;SDS011;40174;52.364;6.452;2023-02-18T02:49:07;43.13;;;13.43;;
54261;SDS011;40174;52.364;6.452;2023-02-18T02:51:46;38.13;;;13.70;;
54261;SDS011;40174;52.364;6.452;2023-02-18T02:54:19;45.47;;;14.57;;
54261;SDS011;40174;52.364;6.452;2023-02-18T02:56:48;37.83;;;12.73;;
54261;SDS011;40174;52.364;6.452;2023-02-18T02:59:21;42.63;;;13.05;;
54261;SDS011;40174;52.364;6.452;2023-02-18T03:01:56;42.75;;;12.88;;
54261;SDS011;40174;52.364;6.452;2023-02-18T03:07:38;39.40;;;13.60;;
54261;SDS011;40174;52.364;6.452;2023-02-18T03:10:24;43.08;;;13.50;;
54261;SDS011;40174;52.364;6.452;2023-02-18T03:13:12;39.97;;;13.43;;
54261;SDS011;40174;52.364;6.452;2023-02-18T03:15:52;37.38;;;10.95;;
54261;SDS011;40174;52.364;6.452;2023-02-18T03:18:22;36.90;;;9.77;;
54261;SDS011;40174;52.364;6.452;2023-02-18T03:20:55;35.58;;;10.73;;
54261;SDS011;40174;52.364;6.452;2023-02-18T03:23:26;32.67;;;10.85;;
54261;SDS011;40174;52.364;6.452;2023-02-18T03:25:55;30.50;;;10.07;;
54261;SDS011;40174;52.364;6.452;2023-02-18T03:28:25;36.38;;;10.40;;
54261;SDS011;40174;52.364;6.452;2023-02-18T03:30:57;30.70;;;10.27;;
54261;SDS011;40174;52.364;6.452;2023-02-18T03:33:28;29.42;;;9.52;;
54261;SDS011;40174;52.364;6.452;2023-02-18T03:35:59;32.13;;;9.15;;
54261;SDS011;40174;52.364;6.452;2023-02-18T03:38:29;30.88;;;9.35;;
54261;SDS011;40174;52.364;6.452;2023-02-18T03:41:01;31.25;;;8.90;;
54261;SDS011;40174;52.364;6.452;2023-02-18T03:43:29;32.70;;;9.48;;
54261;SDS011;40174;52.364;6.452;2023-02-18T03:45:56;27.10;;;8.90;;
54261;SDS011;40174;52.364;6.452;2023-02-18T03:48:23;29.60;;;8.65;;
54261;SDS011;40174;52.364;6.452;2023-02-18T03:50:50;32.03;;;9.57;;
54261;SDS011;40174;52.364;6.452;2023-02-18T03:53:17;31.45;;;9.85;;
54261;SDS011;40174;52.364;6.452;2023-02-18T03:55:45;32.42;;;9.73;;
54261;SDS011;40174;52.364;6.452;2023-02-18T03:58:12;32.30;;;8.55;;
54261;SDS011;40174;52.364;6.452;2023-02-18T04:00:38;22.55;;;8.60;;
54261;SDS011;40174;52.364;6.452;2023-02-18T04:03:05;32.85;;;10.27;;
54261;SDS011;40174;52.364;6.452;2023-02-18T04:05:32;33.78;;;10.88;;
54261;SDS011;40174;52.364;6.452;2023-02-18T04:07:58;36.35;;;10.07;;
54261;SDS011;40174;52.364;6.452;2023-02-18T04:10:25;36.80;;;10.73;;
54261;SDS011;40174;52.364;6.452;2023-02-18T04:12:53;39.00;;;11.07;;
54261;SDS011;40174;52.364;6.452;2023-02-18T04:15:19;33.17;;;11.15;;
54261;SDS011;40174;52.364;6.452;2023-02-18T04:17:46;42.65;;;10.25;;
54261;SDS011;40174;52.364;6.452;2023-02-18T04:20:12;37.15;;;11.15;;
54261;SDS011;40174;52.364;6.452;2023-02-18T04:22:40;38.28;;;12.20;;
54261;SDS011;40174;52.364;6.452;2023-02-18T04:25:07;38.20;;;11.38;;
54261;SDS011;40174;52.364;6.452;2023-02-18T04:27:34;36.50;;;11.48;;
54261;SDS011;40174;52.364;6.452;2023-02-18T04:30:02;41.33;;;11.65;;
54261;SDS011;40174;52.364;6.452;2023-02-18T04:32:28;45.20;;;11.98;;
54261;SDS011;40174;52.364;6.452;2023-02-18T04:34:55;38.67;;;11.48;;
54261;SDS011;40174;52.364;6.452;2023-02-18T04:37:22;34.88;;;11.00;;
54261;SDS011;40174;52.364;6.452;2023-02-18T04:39:48;35.15;;;9.93;;
54261;SDS011;40174;52.364;6.452;2023-02-18T04:42:15;33.05;;;10.32;;
54261;SDS011;40174;52.364;6.452;2023-02-18T04:44:42;27.02;;;10.00;;
54261;SDS011;40174;52.364;6.452;2023-02-18T04:47:10;24.30;;;8.80;;
54261;SDS011;40174;52.364;6.452;2023-02-18T04:49:36;32.35;;;9.65;;
54261;SDS011;40174;52.364;6.452;2023-02-18T04:52:03;32.00;;;8.38;;
54261;SDS011;40174;52.364;6.452;2023-02-18T04:54:30;33.75;;;9.57;;
54261;SDS011;40174;52.364;6.452;2023-02-18T04:56:56;25.65;;;9.10;;
54261;SDS011;40174;52.364;6.452;2023-02-18T04:59:23;30.75;;;8.07;;
54261;SDS011;40174;52.364;6.452;2023-02-18T05:01:50;24.00;;;7.75;;
54261;SDS011;40174;52.364;6.452;2023-02-18T05:04:17;27.25;;;8.32;;
54261;SDS011;40174;52.364;6.452;2023-02-18T05:06:44;20.60;;;6.50;;
54261;SDS011;40174;52.364;6.452;2023-02-18T05:09:11;22.63;;;8.40;;
54261;SDS011;40174;52.364;6.452;2023-02-18T05:11:38;19.70;;;6.30;;
54261;SDS011;40174;52.364;6.452;2023-02-18T05:14:05;20.63;;;6.45;;
54261;SDS011;40174;52.364;6.452;2023-02-18T05:16:31;19.77;;;6.20;;
54261;SDS011;40174;52.364;6.452;2023-02-18T05:18:58;16.45;;;5.18;;
54261;SDS011;40174;52.364;6.452;2023-02-18T05:21:26;15.32;;;5.05;;
54261;SDS011;40174;52.364;6.452;2023-02-18T05:23:53;15.95;;;4.93;;
54261;SDS011;40174;52.364;6.452;2023-02-18T05:26:19;18.73;;;5.43;;
54261;SDS011;40174;52.364;6.452;2023-02-18T05:28:46;12.50;;;3.88;;
54261;SDS011;40174;52.364;6.452;2023-02-18T05:31:13;14.95;;;4.32;;
54261;SDS011;40174;52.364;6.452;2023-02-18T05:33:39;12.48;;;4.53;;
54261;SDS011;40174;52.364;6.452;2023-02-18T05:36:06;9.77;;;3.40;;
54261;SDS011;40174;52.364;6.452;2023-02-18T05:38:34;12.27;;;4.28;;
54261;SDS011;40174;52.364;6.452;2023-02-18T05:41:01;12.07;;;3.50;;
54261;SDS011;40174;52.364;6.452;2023-02-18T05:43:27;10.63;;;2.80;;
54261;SDS011;40174;52.364;6.452;2023-02-18T05:45:54;9.65;;;3.42;;
54261;SDS011;40174;52.364;6.452;2023-02-18T05:48:20;9.82;;;3.40;;
54261;SDS011;40174;52.364;6.452;2023-02-18T05:50:47;9.75;;;2.58;;
54261;SDS011;40174;52.364;6.452;2023-02-18T05:53:18;10.32;;;3.15;;
54261;SDS011;40174;52.364;6.452;2023-02-18T05:55:45;6.97;;;2.20;;
54261;SDS011;40174;52.364;6.452;2023-02-18T05:58:12;8.32;;;2.70;;
54261;SDS011;40174;52.364;6.452;2023-02-18T06:00:41;6.63;;;1.95;;
54261;SDS011;40174;52.364;6.452;2023-02-18T06:03:07;8.40;;;2.40;;
54261;SDS011;40174;52.364;6.452;2023-02-18T06:05:34;7.93;;;2.55;;
54261;SDS011;40174;52.364;6.452;2023-02-18T06:08:00;7.78;;;2.22;;
54261;SDS011;40174;52.364;6.452;2023-02-18T06:10:27;6.30;;;2.00;;
54261;SDS011;40174;52.364;6.452;2023-02-18T06:12:55;8.98;;;2.38;;
54261;SDS011;40174;52.364;6.452;2023-02-18T06:15:22;6.95;;;2.42;;
54261;SDS011;40174;52.364;6.452;2023-02-18T06:17:48;8.40;;;2.95;;
54261;SDS011;40174;52.364;6.452;2023-02-18T06:20:15;7.00;;;2.30;;
54261;SDS011;40174;52.364;6.452;2023-02-18T06:22:41;6.13;;;2.33;;
54261;SDS011;40174;52.364;6.452;2023-02-18T06:25:08;8.00;;;2.45;;
54261;SDS011;40174;52.364;6.452;2023-02-18T06:27:35;6.15;;;2.22;;
54261;SDS011;40174;52.364;6.452;2023-02-18T06:30:03;6.28;;;1.98;;
54261;SDS011;40174;52.364;6.452;2023-02-18T06:32:30;8.18;;;2.60;;
54261;SDS011;40174;52.364;6.452;2023-02-18T06:34:57;5.57;;;2.53;;
54261;SDS011;40174;52.364;6.452;2023-02-18T06:37:23;7.28;;;2.72;;
54261;SDS011;40174;52.364;6.452;2023-02-18T06:39:50;7.53;;;2.33;;
54261;SDS011;40174;52.364;6.452;2023-02-18T06:42:18;6.82;;;2.65;;
54261;SDS011;40174;52.364;6.452;2023-02-18T06:44:45;7.85;;;3.10;;
54261;SDS011;40174;52.364;6.452;2023-02-18T06:47:13;6.47;;;2.53;;
54261;SDS011;40174;52.364;6.452;2023-02-18T06:49:40;7.70;;;2.90;;
54261;SDS011;40174;52.364;6.452;2023-02-18T06:52:07;5.88;;;2.08;;
54261;SDS011;40174;52.364;6.452;2023-02-18T06:54:34;8.38;;;2.80;;
54261;SDS011;40174;52.364;6.452;2023-02-18T06:57:01;7.18;;;2.55;;
54261;SDS011;40174;52.364;6.452;2023-02-18T06:59:29;6.65;;;2.30;;
54261;SDS011;40174;52.364;6.452;2023-02-18T07:01:55;6.65;;;2.50;;
54261;SDS011;40174;52.364;6.452;2023-02-18T07:04:24;6.28;;;2.58;;
54261;SDS011;40174;52.364;6.452;2023-02-18T07:06:50;6.40;;;2.20;;
54261;SDS011;40174;52.364;6.452;2023-02-18T07:09:17;7.15;;;2.95;;
54261;SDS011;40174;52.364;6.452;2023-02-18T07:11:44;8.07;;;2.70;;
54261;SDS011;40174;52.364;6.452;2023-02-18T07:14:12;7.95;;;3.22;;
54261;SDS011;40174;52.364;6.452;2023-02-18T07:16:39;7.53;;;3.25;;
54261;SDS011;40174;52.364;6.452;2023-02-18T07:19:06;9.70;;;4.00;;
54261;SDS011;40174;52.364;6.452;2023-02-18T07:21:34;10.85;;;3.50;;
54261;SDS011;40174;52.364;6.452;2023-02-18T07:24:01;10.23;;;3.53;;
54261;SDS011;40174;52.364;6.452;2023-02-18T07:26:27;13.20;;;4.43;;
54261;SDS011;40174;52.364;6.452;2023-02-18T07:28:54;15.35;;;5.22;;
54261;SDS011;40174;52.364;6.452;2023-02-18T07:31:21;13.45;;;4.85;;
54261;SDS011;40174;52.364;6.452;2023-02-18T07:33:48;12.20;;;5.10;;
54261;SDS011;40174;52.364;6.452;2023-02-18T07:36:18;11.18;;;4.53;;
54261;SDS011;40174;52.364;6.452;2023-02-18T07:38:46;12.20;;;5.20;;
54261;SDS011;40174;52.364;6.452;2023-02-18T07:41:15;14.45;;;5.57;;
54261;SDS011;40174;52.364;6.452;2023-02-18T07:43:43;17.15;;;6.63;;
54261;SDS011;40174;52.364;6.452;2023-02-18T07:46:10;17.85;;;6.78;;
54261;SDS011;40174;52.364;6.452;2023-02-18T07:48:37;16.85;;;6.60;;
54261;SDS011;40174;52.364;6.452;2023-02-18T07:51:06;16.80;;;6.05;;
54261;SDS011;40174;52.364;6.452;2023-02-18T07:53:38;17.70;;;6.28;;
54261;SDS011;40174;52.364;6.452;2023-02-18T07:56:08;17.73;;;6.13;;
54261;SDS011;40174;52.364;6.452;2023-02-18T07:58:36;17.50;;;7.60;;
54261;SDS011;40174;52.364;6.452;2023-02-18T08:06:29;16.88;;;6.97;;
54261;SDS011;40174;52.364;6.452;2023-02-18T08:11:35;15.57;;;5.93;;
54261;SDS011;40174;52.364;6.452;2023-02-18T08:14:02;14.20;;;6.03;;
54261;SDS011;40174;52.364;6.452;2023-02-18T08:16:30;14.00;;;5.63;;
54261;SDS011;40174;52.364;6.452;2023-02-18T08:18:57;13.00;;;5.53;;
54261;SDS011;40174;52.364;6.452;2023-02-18T08:21:24;12.10;;;4.72;;
54261;SDS011;40174;52.364;6.452;2023-02-18T08:23:51;11.73;;;3.78;;
54261;SDS011;40174;52.364;6.452;2023-02-18T08:26:18;9.07;;;3.58;;
54261;SDS011;40174;52.364;6.452;2023-02-18T08:28:47;9.82;;;3.78;;
54261;SDS011;40174;52.364;6.452;2023-02-18T08:31:15;9.80;;;3.78;;
54261;SDS011;40174;52.364;6.452;2023-02-18T08:33:43;11.00;;;3.92;;
54261;SDS011;40174;52.364;6.452;2023-02-18T08:36:10;11.20;;;3.85;;
54261;SDS011;40174;52.364;6.452;2023-02-18T08:38:37;12.65;;;4.65;;
54261;SDS011;40174;52.364;6.452;2023-02-18T08:41:06;14.88;;;3.88;;
54261;SDS011;40174;52.364;6.452;2023-02-18T08:54:16;13.35;;;4.75;;
54261;SDS011;40174;52.364;6.452;2023-02-18T08:56:43;11.93;;;3.72;;
54261;SDS011;40174;52.364;6.452;2023-02-18T08:59:10;11.32;;;4.45;;
54261;SDS011;40174;52.364;6.452;2023-02-18T09:04:12;9.45;;;3.78;;
54261;SDS011;40174;52.364;6.452;2023-02-18T09:06:39;11.68;;;4.25;;
54261;SDS011;40174;52.364;6.452;2023-02-18T09:09:05;14.50;;;4.72;;
54261;SDS011;40174;52.364;6.452;2023-02-18T09:19:33;15.20;;;4.63;;
54261;SDS011;40174;52.364;6.452;2023-02-18T09:27:23;8.13;;;3.40;;
54261;SDS011;40174;52.364;6.452;2023-02-18T09:29:52;12.55;;;3.67;;
54261;SDS011;40174;52.364;6.452;2023-02-18T09:32:19;12.15;;;3.22;;
54261;SDS011;40174;52.364;6.452;2023-02-18T13:22:21;6.55;;;1.20;;
54261;SDS011;40174;52.364;6.452;2023-02-18T13:24:54;5.55;;;1.13;;
54261;SDS011;40174;52.364;6.452;2023-02-18T13:27:24;5.93;;;1.85;;
54261;SDS011;40174;52.364;6.452;2023-02-18T13:30:08;6.57;;;1.80;;
54261;SDS011;40174;52.364;6.452;2023-02-18T13:32:47;9.27;;;1.70;;
54261;SDS011;40174;52.364;6.452;2023-02-18T13:35:24;12.57;;;2.30;;
54261;SDS011;40174;52.364;6.452;2023-02-18T13:38:01;6.20;;;1.58;;
54261;SDS011;40174;52.364;6.452;2023-02-18T13:40:43;10.20;;;2.08;;
54261;SDS011;40174;52.364;6.452;2023-02-18T13:43:17;5.40;;;1.27;;
54261;SDS011;40174;52.364;6.452;2023-02-18T13:46:01;7.65;;;1.30;;
54261;SDS011;40174;52.364;6.452;2023-02-18T13:48:29;5.70;;;1.77;;
54261;SDS011;40174;52.364;6.452;2023-02-18T13:51:00;6.05;;;1.35;;
54261;SDS011;40174;52.364;6.452;2023-02-18T13:53:31;6.35;;;1.50;;
54261;SDS011;40174;52.364;6.452;2023-02-18T13:56:06;6.63;;;1.45;;
54261;SDS011;40174;52.364;6.452;2023-02-18T13:58:35;5.25;;;1.60;;
54261;SDS011;40174;52.364;6.452;2023-02-18T14:01:11;11.05;;;1.85;;
54261;SDS011;40174;52.364;6.452;2023-02-18T14:03:52;6.50;;;1.73;;
54261;SDS011;40174;52.364;6.452;2023-02-18T14:06:26;5.35;;;1.33;;
54261;SDS011;40174;52.364;6.452;2023-02-18T14:09:04;9.23;;;1.70;;
54261;SDS011;40174;52.364;6.452;2023-02-18T14:12:14;4.38;;;1.40;;
54261;SDS011;40174;52.364;6.452;2023-02-18T14:14:44;4.03;;;1.30;;
54261;SDS011;40174;52.364;6.452;2023-02-18T14:20:25;6.70;;;1.83;;
54261;SDS011;40174;52.364;6.452;2023-02-18T14:26:29;9.10;;;1.40;;
54261;SDS011;40174;52.364;6.452;2023-02-18T14:29:05;6.72;;;2.17;;
54261;SDS011;40174;52.364;6.452;2023-02-18T14:31:42;6.97;;;2.17;;
54261;SDS011;40174;52.364;6.452;2023-02-18T14:40:40;9.32;;;1.67;;
54261;SDS011;40174;52.364;6.452;2023-02-18T14:43:25;11.75;;;1.55;;
54261;SDS011;40174;52.364;6.452;2023-02-18T14:46:12;8.63;;;1.50;;
54261;SDS011;40174;52.364;6.452;2023-02-18T14:49:01;6.95;;;1.75;;
54261;SDS011;40174;52.364;6.452;2023-02-18T14:51:39;8.05;;;1.70;;
54261;SDS011;40174;52.364;6.452;2023-02-18T14:54:11;8.95;;;1.90;;
54261;SDS011;40174;52.364;6.452;2023-02-18T14:56:42;7.05;;;1.48;;
54261;SDS011;40174;52.364;6.452;2023-02-18T14:59:18;9.93;;;1.80;;
54261;SDS011;40174;52.364;6.452;2023-02-18T15:01:47;8.05;;;2.28;;
54261;SDS011;40174;52.364;6.452;2023-02-18T15:04:14;5.70;;;1.52;;
54261;SDS011;40174;52.364;6.452;2023-02-18T15:06:41;4.90;;;1.50;;
54261;SDS011;40174;52.364;6.452;2023-02-18T15:09:11;8.32;;;1.40;;
54261;SDS011;40174;52.364;6.452;2023-02-18T15:11:41;7.75;;;1.55;;
54261;SDS011;40174;52.364;6.452;2023-02-18T15:14:10;9.00;;;1.80;;
54261;SDS011;40174;52.364;6.452;2023-02-18T15:16:43;10.15;;;1.85;;
54261;SDS011;40174;52.364;6.452;2023-02-18T15:19:12;5.07;;;1.38;;
54261;SDS011;40174;52.364;6.452;2023-02-18T15:21:43;8.07;;;1.90;;
54261;SDS011;40174;52.364;6.452;2023-02-18T15:24:16;4.97;;;1.58;;
54261;SDS011;40174;52.364;6.452;2023-02-18T15:26:49;6.75;;;1.83;;
54261;SDS011;40174;52.364;6.452;2023-02-18T15:29:17;8.73;;;1.65;;
54261;SDS011;40174;52.364;6.452;2023-02-18T15:31:47;3.45;;;0.95;;
54261;SDS011;40174;52.364;6.452;2023-02-18T15:34:26;5.18;;;1.40;;
54261;SDS011;40174;52.364;6.452;2023-02-18T15:37:05;4.53;;;1.25;;
54261;SDS011;40174;52.364;6.452;2023-02-18T15:39:35;5.15;;;1.30;;
54261;SDS011;40174;52.364;6.452;2023-02-18T15:42:05;8.90;;;1.73;;
54261;SDS011;40174;52.364;6.452;2023-02-18T15:44:35;7.72;;;1.73;;
54261;SDS011;40174;52.364;6.452;2023-02-18T15:47:05;10.80;;;1.45;;
54261;SDS011;40174;52.364;6.452;2023-02-18T15:49:35;4.50;;;1.02;;
54261;SDS011;40174;52.364;6.452;2023-02-18T15:52:04;6.70;;;1.23;;
54261;SDS011;40174;52.364;6.452;2023-02-18T15:54:33;7.80;;;1.05;;
54261;SDS011;40174;52.364;6.452;2023-02-18T15:57:02;6.47;;;1.17;;
54261;SDS011;40174;52.364;6.452;2023-02-18T15:59:31;6.57;;;1.15;;
54261;SDS011;40174;52.364;6.452;2023-02-18T16:02:02;8.82;;;1.25;;
54261;SDS011;40174;52.364;6.452;2023-02-18T16:04:40;6.70;;;1.67;;
54261;SDS011;40174;52.364;6.452;2023-02-18T16:07:21;6.72;;;1.40;;
54261;SDS011;40174;52.364;6.452;2023-02-18T16:09:50;4.80;;;1.20;;
54261;SDS011;40174;52.364;6.452;2023-02-18T16:12:32;6.22;;;1.30;;
54261;SDS011;40174;52.364;6.452;2023-02-18T16:15:01;5.38;;;1.10;;
54261;SDS011;40174;52.364;6.452;2023-02-18T16:17:31;8.98;;;1.50;;
54261;SDS011;40174;52.364;6.452;2023-02-18T16:19:59;7.85;;;2.00;;
54261;SDS011;40174;52.364;6.452;2023-02-18T16:22:31;6.47;;;1.30;;
54261;SDS011;40174;52.364;6.452;2023-02-18T16:25:00;8.07;;;1.73;;
54261;SDS011;40174;52.364;6.452;2023-02-18T16:27:34;7.95;;;1.42;;
54261;SDS011;40174;52.364;6.452;2023-02-18T16:30:05;12.38;;;1.48;;
54261;SDS011;40174;52.364;6.452;2023-02-18T16:32:42;4.82;;;1.48;;
54261;SDS011;40174;52.364;6.452;2023-02-18T16:35:10;8.90;;;1.67;;
54261;SDS011;40174;52.364;6.452;2023-02-18T16:37:37;10.57;;;1.92;;
54261;SDS011;40174;52.364;6.452;2023-02-18T16:40:05;7.13;;;1.75;;
54261;SDS011;40174;52.364;6.452;2023-02-18T16:42:49;4.03;;;1.30;;
54261;SDS011;40174;52.364;6.452;2023-02-18T16:45:16;4.72;;;1.33;;
54261;SDS011;40174;52.364;6.452;2023-02-18T16:47:48;7.10;;;2.30;;
54261;SDS011;40174;52.364;6.452;2023-02-18T16:50:17;8.82;;;1.95;;
54261;SDS011;40174;52.364;6.452;2023-02-18T16:52:46;9.07;;;1.42;;
54261;SDS011;40174;52.364;6.452;2023-02-18T16:55:16;7.43;;;1.30;;
54261;SDS011;40174;52.364;6.452;2023-02-18T16:57:49;4.65;;;1.65;;
54261;SDS011;40174;52.364;6.452;2023-02-18T17:00:16;4.72;;;1.08;;
54261;SDS011;40174;52.364;6.452;2023-02-18T17:02:45;7.38;;;1.38;;
54261;SDS011;40174;52.364;6.452;2023-02-18T17:05:18;5.70;;;1.65;;
54261;SDS011;40174;52.364;6.452;2023-02-18T17:07:46;10.75;;;1.52;;
54261;SDS011;40174;52.364;6.452;2023-02-18T17:10:13;4.10;;;1.40;;
54261;SDS011;40174;52.364;6.452;2023-02-18T17:12:40;7.28;;;1.20;;
54261;SDS011;40174;52.364;6.452;2023-02-18T17:15:20;6.07;;;1.55;;
54261;SDS011;40174;52.364;6.452;2023-02-18T17:17:55;9.70;;;1.90;;
54261;SDS011;40174;52.364;6.452;2023-02-18T17:20:23;5.22;;;1.45;;
54261;SDS011;40174;52.364;6.452;2023-02-18T17:22:50;2.38;;;1.13;;
54261;SDS011;40174;52.364;6.452;2023-02-18T17:25:17;11.40;;;1.92;;
54261;SDS011;40174;52.364;6.452;2023-02-18T17:27:47;10.30;;;1.52;;
54261;SDS011;40174;52.364;6.452;2023-02-18T17:30:15;6.32;;;1.20;;
54261;SDS011;40174;52.364;6.452;2023-02-18T17:32:42;6.47;;;1.25;;
54261;SDS011;40174;52.364;6.452;2023-02-18T17:35:14;7.13;;;1.10;;
54261;SDS011;40174;52.364;6.452;2023-02-18T17:37:42;8.05;;;2.80;;
54261;SDS011;40174;52.364;6.452;2023-02-18T17:42:39;9.68;;;2.63;;
54261;SDS011;40174;52.364;6.452;2023-02-18T17:45:09;3.97;;;1.45;;
54261;SDS011;40174;52.364;6.452;2023-02-18T17:47:42;5.07;;;1.63;;
54261;SDS011;40174;52.364;6.452;2023-02-18T17:50:08;7.18;;;1.65;;
54261;SDS011;40174;52.364;6.452;2023-02-18T17:52:37;5.65;;;1.48;;
54261;SDS011;40174;52.364;6.452;2023-02-18T17:55:07;11.40;;;2.03;;
54261;SDS011;40174;52.364;6.452;2023-02-18T17:57:41;6.40;;;1.73;;
54261;SDS011;40174;52.364;6.452;2023-02-18T18:00:09;7.57;;;1.80;;
54261;SDS011;40174;52.364;6.452;2023-02-18T18:02:36;5.82;;;1.63;;
54261;SDS011;40174;52.364;6.452;2023-02-18T18:05:03;8.13;;;1.92;;
54261;SDS011;40174;52.364;6.452;2023-02-18T18:07:30;5.82;;;2.03;;
54261;SDS011;40174;52.364;6.452;2023-02-18T18:09:58;10.60;;;2.00;;
54261;SDS011;40174;52.364;6.452;2023-02-18T18:12:24;5.82;;;2.10;;
54261;SDS011;40174;52.364;6.452;2023-02-18T18:14:51;5.75;;;1.85;;
54261;SDS011;40174;52.364;6.452;2023-02-18T18:17:18;8.70;;;2.20;;
54261;SDS011;40174;52.364;6.452;2023-02-18T18:19:45;11.65;;;3.42;;
54261;SDS011;40174;52.364;6.452;2023-02-18T18:22:11;7.30;;;1.98;;
54261;SDS011;40174;52.364;6.452;2023-02-18T18:24:38;7.50;;;2.10;;
54261;SDS011;40174;52.364;6.452;2023-02-18T18:27:07;10.73;;;2.78;;
54261;SDS011;40174;52.364;6.452;2023-02-18T18:29:34;7.57;;;2.45;;
54261;SDS011;40174;52.364;6.452;2023-02-18T18:32:00;8.93;;;2.50;;
54261;SDS011;40174;52.364;6.452;2023-02-18T18:34:27;8.52;;;2.88;;
54261;SDS011;40174;52.364;6.452;2023-02-18T18:36:54;6.47;;;2.65;;
54261;SDS011;40174;52.364;6.452;2023-02-18T18:39:20;12.98;;;2.72;;
54261;SDS011;40174;52.364;6.452;2023-02-18T18:41:47;6.78;;;2.28;;
54261;SDS011;40174;52.364;6.452;2023-02-18T18:44:15;7.95;;;2.97;;
54261;SDS011;40174;52.364;6.452;2023-02-18T18:46:41;5.80;;;2.25;;
54261;SDS011;40174;52.364;6.452;2023-02-18T18:49:08;7.40;;;2.60;;
54261;SDS011;40174;52.364;6.452;2023-02-18T18:51:34;13.02;;;2.55;;
54261;SDS011;40174;52.364;6.452;2023-02-18T18:54:01;7.80;;;3.03;;
54261;SDS011;40174;52.364;6.452;2023-02-18T18:56:28;6.10;;;2.50;;
54261;SDS011;40174;52.364;6.452;2023-02-18T18:58:54;11.73;;;2.92;;
54261;SDS011;40174;52.364;6.452;2023-02-18T19:01:22;10.77;;;2.85;;
54261;SDS011;40174;52.364;6.452;2023-02-18T19:03:51;8.38;;;2.50;;
54261;SDS011;40174;52.364;6.452;2023-02-18T19:06:17;9.32;;;2.47;;
54261;SDS011;40174;52.364;6.452;2023-02-18T19:08:45;11.65;;;3.05;;
54261;SDS011;40174;52.364;6.452;2023-02-18T19:11:12;9.18;;;2.65;;
54261;SDS011;40174;52.364;6.452;2023-02-18T19:13:40;9.95;;;2.90;;
54261;SDS011;40174;52.364;6.452;2023-02-18T19:16:10;7.78;;;2.58;;
54261;SDS011;40174;52.364;6.452;2023-02-18T19:18:41;8.88;;;2.60;;
54261;SDS011;40174;52.364;6.452;2023-02-18T19:21:08;8.82;;;2.78;;
54261;SDS011;40174;52.364;6.452;2023-02-18T19:23:36;10.55;;;3.58;;
54261;SDS011;40174;52.364;6.452;2023-02-18T19:26:03;8.15;;;2.45;;
54261;SDS011;40174;52.364;6.452;2023-02-18T19:28:30;8.77;;;2.67;;
54261;SDS011;40174;52.364;6.452;2023-02-18T19:30:57;15.02;;;3.47;;
54261;SDS011;40174;52.364;6.452;2023-02-18T19:33:23;10.68;;;2.63;;
54261;SDS011;40174;52.364;6.452;2023-02-18T19:35:51;10.95;;;3.38;;
54261;SDS011;40174;52.364;6.452;2023-02-18T19:38:18;8.15;;;3.05;;
54261;SDS011;40174;52.364;6.452;2023-02-18T19:40:45;8.50;;;3.70;;
54261;SDS011;40174;52.364;6.452;2023-02-18T19:43:12;8.80;;;3.85;;
54261;SDS011;40174;52.364;6.452;2023-02-18T19:45:39;11.32;;;4.07;;
54261;SDS011;40174;52.364;6.452;2023-02-18T19:48:08;12.23;;;3.63;;